createdAt,value
2022-11-19T00:00:46.990Z,1.63
2022-11-19T00:03:14.360Z,1.60
2022-11-19T00:05:46.114Z,1.65
2022-11-19T00:08:14.109Z,1.23
2022-11-19T00:10:40.765Z,1.40
2022-11-19T00:13:07.797Z,1.83
2022-11-19T00:15:35.255Z,1.30
2022-11-19T00:18:02.490Z,1.00
2022-11-19T00:20:29.412Z,1.10
2022-11-19T00:22:57.206Z,1.30
2022-11-19T00:25:25.061Z,1.40
2022-11-19T00:27:52.549Z,1.27
2022-11-19T00:30:40.875Z,1.77
2022-11-19T00:33:06.384Z,1.40
2022-11-19T00:35:32.922Z,1.40
2022-11-19T00:37:59.510Z,1.30
2022-11-19T00:40:26.084Z,1.50
2022-11-19T00:43:10.877Z,1.50
2022-11-19T00:45:37.417Z,1.60
2022-11-19T00:48:04.198Z,1.40
2022-11-19T00:50:30.802Z,1.50
2022-11-19T00:52:57.373Z,1.50
2022-11-19T00:55:23.939Z,1.80
2022-11-19T00:57:50.509Z,1.40
2022-11-19T01:00:17.301Z,1.80
2022-11-19T01:02:43.868Z,1.88
2022-11-19T01:05:10.452Z,1.30
2022-11-19T01:07:37.070Z,1.42
2022-11-19T01:10:04.016Z,1.30
2022-11-19T01:12:30.619Z,1.15
2022-11-19T01:14:57.156Z,1.30
2022-11-19T01:17:23.717Z,1.25
2022-11-19T01:19:50.266Z,1.40
2022-11-19T01:22:16.833Z,1.73
2022-11-19T01:24:43.389Z,2.00
2022-11-19T01:27:09.939Z,1.70
2022-11-19T01:29:36.498Z,1.77
2022-11-19T01:32:03.036Z,1.90
2022-11-19T01:34:29.783Z,1.70
2022-11-19T01:36:56.318Z,2.05
2022-11-19T01:39:22.888Z,1.50
2022-11-19T01:41:49.456Z,1.52
2022-11-19T01:45:07.038Z,1.50
2022-11-19T01:47:33.599Z,1.27
2022-11-19T01:50:00.157Z,1.10
2022-11-19T01:52:26.720Z,1.45
2022-11-19T01:54:53.655Z,1.65
2022-11-19T01:57:20.293Z,1.20
2022-11-19T01:59:47.697Z,1.58
2022-11-19T02:02:14.622Z,1.13
2022-11-19T02:04:41.223Z,1.17
2022-11-19T02:07:07.888Z,0.90
2022-11-19T02:09:34.473Z,1.00
2022-11-19T02:12:15.940Z,1.23
2022-11-19T02:14:57.827Z,0.88
2022-11-19T02:17:45.788Z,1.40
2022-11-19T02:20:40.967Z,1.15
2022-11-19T02:23:22.604Z,0.73
2022-11-19T02:26:21.460Z,0.80
2022-11-19T02:28:50.508Z,1.13
2022-11-19T02:31:35.267Z,1.00
2022-11-19T02:34:11.639Z,0.90
2022-11-19T02:36:47.789Z,1.17
2022-11-19T02:39:20.768Z,0.93
2022-11-19T02:44:46.868Z,0.90
2022-11-19T02:47:19.020Z,1.05
2022-11-19T02:49:45.875Z,1.07
2022-11-19T02:52:14.450Z,0.93
2022-11-19T02:54:41.040Z,1.20
2022-11-19T02:57:10.288Z,0.90
2022-11-19T03:00:02.914Z,0.90
2022-11-19T03:03:03.971Z,0.80
2022-11-19T03:05:32.280Z,1.10
2022-11-19T03:07:58.917Z,1.25
2022-11-19T03:10:27.955Z,1.23
2022-11-19T03:12:55.620Z,1.00
2022-11-19T03:15:54.317Z,1.20
2022-11-19T03:18:22.458Z,1.08
2022-11-19T03:21:14.177Z,1.02
2022-11-19T03:23:45.304Z,0.90
2022-11-19T03:26:26.924Z,1.25
2022-11-19T03:28:53.544Z,0.93
2022-11-19T03:31:20.243Z,1.30
2022-11-19T03:33:48.005Z,1.08
2022-11-19T03:36:16.251Z,1.10
2022-11-19T03:38:44.771Z,1.10
2022-11-19T03:41:12.331Z,1.52
2022-11-19T03:43:39.735Z,0.80
2022-11-19T03:46:07.660Z,0.90
2022-11-19T03:48:34.263Z,1.00
2022-11-19T03:51:08.304Z,1.25
2022-11-19T03:53:34.891Z,1.10
2022-11-19T03:56:03.658Z,1.13
2022-11-19T03:58:36.560Z,1.25
2022-11-19T04:03:29.688Z,1.30
2022-11-19T04:05:56.251Z,1.23
2022-11-19T04:08:22.900Z,1.17
2022-11-19T04:10:49.435Z,1.30
2022-11-19T04:13:16.015Z,1.42
2022-11-19T04:15:42.623Z,1.70
2022-11-19T04:18:09.272Z,1.10
2022-11-19T04:20:35.962Z,0.85
2022-11-19T04:23:02.593Z,1.10
2022-11-19T04:25:29.156Z,1.05
2022-11-19T04:27:55.715Z,1.40
2022-11-19T04:30:22.250Z,1.00
2022-11-19T04:32:49.017Z,1.25
2022-11-19T04:35:18.199Z,1.02
2022-11-19T04:37:44.843Z,1.10
2022-11-19T04:40:12.490Z,1.20
2022-11-19T04:42:39.059Z,1.10
2022-11-19T04:45:06.136Z,1.10
2022-11-19T04:47:32.695Z,1.40
2022-11-19T04:49:59.295Z,1.02
2022-11-19T04:52:25.855Z,1.27
2022-11-19T04:54:52.429Z,0.85
2022-11-19T04:57:19.008Z,0.90
2022-11-19T04:59:45.596Z,1.30
2022-11-19T05:02:12.216Z,1.15
2022-11-19T05:04:38.812Z,1.23
2022-11-19T05:07:05.419Z,1.30
2022-11-19T05:09:32.004Z,1.25
2022-11-19T05:11:58.571Z,1.38
2022-11-19T05:14:30.102Z,1.77
2022-11-19T05:16:57.210Z,1.55
2022-11-19T05:19:23.768Z,1.60
2022-11-19T05:21:50.339Z,1.63
2022-11-19T05:24:16.898Z,1.40
2022-11-19T05:26:43.479Z,1.42
2022-11-19T05:29:10.036Z,1.50
2022-11-19T05:31:36.760Z,1.67
2022-11-19T05:34:03.421Z,1.88
2022-11-19T05:36:29.998Z,1.98
2022-11-19T05:38:56.549Z,1.60
2022-11-19T05:41:23.173Z,1.48
2022-11-19T05:43:49.796Z,1.40
2022-11-19T05:46:16.341Z,1.80
2022-11-19T05:48:42.963Z,1.50
2022-11-19T05:51:13.989Z,1.38
2022-11-19T05:53:40.718Z,1.42
2022-11-19T05:56:07.493Z,1.45
2022-11-19T05:58:34.059Z,1.83
2022-11-19T06:01:00.633Z,2.13
2022-11-19T06:03:27.458Z,1.60
2022-11-19T06:05:54.065Z,1.70
2022-11-19T06:08:20.697Z,2.03
2022-11-19T06:10:47.232Z,1.92
2022-11-19T06:13:13.925Z,1.80
2022-11-19T06:15:40.548Z,1.77
2022-11-19T06:18:07.156Z,1.50
2022-11-19T06:20:33.793Z,1.63
2022-11-19T06:23:00.376Z,1.80
2022-11-19T06:25:26.996Z,2.13
2022-11-19T06:27:53.567Z,1.90
2022-11-19T06:30:20.190Z,1.50
2022-11-19T06:32:46.752Z,1.40
2022-11-19T06:35:14.499Z,1.70
2022-11-19T06:37:41.262Z,1.80
2022-11-19T06:40:08.437Z,2.05
2022-11-19T06:42:37.685Z,2.03
2022-11-19T06:45:05.357Z,1.90
2022-11-19T06:47:32.719Z,1.50
2022-11-19T06:49:59.473Z,1.90
2022-11-19T06:52:26.181Z,1.48
2022-11-19T06:54:52.849Z,1.52
2022-11-19T06:57:19.448Z,1.60
2022-11-19T06:59:46.024Z,1.65
2022-11-19T07:02:12.724Z,1.55
2022-11-19T07:04:39.411Z,1.58
2022-11-19T07:07:06.090Z,1.63
2022-11-19T07:09:32.761Z,1.95
2022-11-19T07:11:59.324Z,2.25
2022-11-19T07:14:25.902Z,1.58
2022-11-19T07:16:52.450Z,1.60
2022-11-19T07:19:19.598Z,1.88
2022-11-19T07:21:46.357Z,1.85
2022-11-19T07:24:16.921Z,1.70
2022-11-19T07:26:43.706Z,1.60
2022-11-19T07:29:11.539Z,1.40
2022-11-19T07:31:38.130Z,1.77
2022-11-19T07:34:10.977Z,1.90
2022-11-19T07:36:37.846Z,2.05
2022-11-19T07:39:05.427Z,1.80
2022-11-19T07:41:50.523Z,1.67
2022-11-19T07:44:17.302Z,1.70
2022-11-19T07:46:43.885Z,1.60
2022-11-19T07:49:10.541Z,1.73
2022-11-19T07:51:37.147Z,1.75
2022-11-19T07:54:03.848Z,2.00
2022-11-19T07:56:30.413Z,2.83
2022-11-19T07:58:59.257Z,2.17
2022-11-19T08:01:26.905Z,2.30
2022-11-19T08:03:56.508Z,2.40
2022-11-19T08:06:25.071Z,2.38
2022-11-19T08:08:51.713Z,1.83
2022-11-19T08:11:18.456Z,2.08
2022-11-19T08:13:45.134Z,1.77
2022-11-19T08:16:38.689Z,1.52
2022-11-19T08:21:34.655Z,1.33
2022-11-19T08:24:01.359Z,1.40
2022-11-19T08:26:27.951Z,1.85
2022-11-19T08:28:54.672Z,1.73
2022-11-19T08:31:21.393Z,2.60
2022-11-19T08:33:47.993Z,2.35
2022-11-19T08:36:14.565Z,2.20
2022-11-19T08:38:41.167Z,2.50
2022-11-19T08:41:26.014Z,2.03
2022-11-19T08:43:52.583Z,1.85
2022-11-19T08:46:19.133Z,2.53
2022-11-19T08:48:45.706Z,2.30
2022-11-19T08:51:14.812Z,2.45
2022-11-19T08:53:41.464Z,2.30
2022-11-19T08:56:08.307Z,2.63
2022-11-19T08:58:35.952Z,4.70
2022-11-19T09:01:13.688Z,8.90
2022-11-19T09:03:40.450Z,4.53
2022-11-19T09:06:07.245Z,2.20
2022-11-19T09:08:34.871Z,2.00
2022-11-19T09:11:21.990Z,1.73
2022-11-19T09:13:48.690Z,1.60
2022-11-19T09:16:15.693Z,1.23
2022-11-19T09:18:42.469Z,1.13
2022-11-19T09:21:10.929Z,1.60
2022-11-19T09:23:37.648Z,1.77
2022-11-19T09:26:06.786Z,1.52
2022-11-19T09:28:33.521Z,1.17
2022-11-19T09:31:12.408Z,1.35
2022-11-19T09:33:42.217Z,1.48
2022-11-19T09:36:10.339Z,1.77
2022-11-19T09:38:37.140Z,1.20
2022-11-19T09:41:28.378Z,1.23
2022-11-19T09:44:07.268Z,1.58
2022-11-19T09:46:40.072Z,2.25
2022-11-19T09:49:12.240Z,2.33
2022-11-19T09:51:39.634Z,1.77
2022-11-19T09:54:07.686Z,0.98
2022-11-19T09:56:41.971Z,1.55
2022-11-19T09:59:28.757Z,1.60
2022-11-19T10:01:55.384Z,0.98
2022-11-19T10:04:23.648Z,1.30
2022-11-19T10:07:06.596Z,1.20
2022-11-19T10:09:36.195Z,1.80
2022-11-19T10:12:21.143Z,1.58
2022-11-19T10:15:15.657Z,3.35
2022-11-19T10:17:57.456Z,2.17
2022-11-19T10:20:33.091Z,1.60
2022-11-19T10:23:10.504Z,1.10
2022-11-19T10:25:43.768Z,1.10
2022-11-19T10:28:22.751Z,1.30
2022-11-19T10:30:51.166Z,1.30
2022-11-19T10:33:40.518Z,0.90
2022-11-19T10:36:09.969Z,1.00
2022-11-19T10:38:51.025Z,1.05
2022-11-19T10:41:22.772Z,1.35
2022-11-19T10:43:52.413Z,1.08
2022-11-19T10:46:22.416Z,1.30
2022-11-19T10:48:56.553Z,0.90
2022-11-19T10:51:24.301Z,0.82
2022-11-19T10:53:55.118Z,1.50
2022-11-19T10:56:23.482Z,2.33
2022-11-19T10:59:05.849Z,1.75
2022-11-19T11:01:33.777Z,1.87
2022-11-19T11:04:19.765Z,1.05
2022-11-19T11:06:55.999Z,1.45
2022-11-19T11:09:36.470Z,1.42
2022-11-19T11:12:42.275Z,1.65
2022-11-19T11:15:25.100Z,1.48
2022-11-19T11:18:08.098Z,2.40
2022-11-19T11:20:36.313Z,1.65
2022-11-19T11:23:20.511Z,2.40
2022-11-19T11:26:11.563Z,2.17
2022-11-19T11:29:00.689Z,2.20
2022-11-19T11:31:36.344Z,2.13
2022-11-19T11:34:03.978Z,1.60
2022-11-19T11:36:32.773Z,1.55
2022-11-19T11:39:00.826Z,1.73
2022-11-19T11:44:47.971Z,1.90
2022-11-19T11:47:36.907Z,1.70
2022-11-19T11:50:12.567Z,1.48
2022-11-19T11:52:44.455Z,1.65
2022-11-19T11:55:23.358Z,1.52
2022-11-19T11:58:16.286Z,1.40
2022-11-19T12:00:47.548Z,2.00
2022-11-19T12:03:19.470Z,1.95
2022-11-19T12:06:05.421Z,2.22
2022-11-19T12:08:57.102Z,2.00
2022-11-19T12:11:57.414Z,1.55
2022-11-19T12:14:51.113Z,1.30
2022-11-19T12:17:36.275Z,1.20
2022-11-19T12:20:21.792Z,1.30
2022-11-19T12:23:40.077Z,1.77
2022-11-19T12:26:29.177Z,1.65
2022-11-19T12:29:14.582Z,1.80
2022-11-19T12:32:07.599Z,2.00
2022-11-19T12:34:43.358Z,1.88
2022-11-19T12:37:47.560Z,2.63
2022-11-19T12:40:45.601Z,2.08
2022-11-19T12:43:36.892Z,2.92
2022-11-19T12:46:15.574Z,2.15
2022-11-19T12:49:21.379Z,2.03
2022-11-19T12:51:54.283Z,2.90
2022-11-19T12:54:44.769Z,2.83
2022-11-19T12:57:39.896Z,2.40
2022-11-19T13:00:11.499Z,2.25
2022-11-19T13:02:48.948Z,2.20
2022-11-19T13:05:22.979Z,1.90
2022-11-19T13:08:01.911Z,1.90
2022-11-19T13:10:33.174Z,1.80
2022-11-19T13:13:00.447Z,2.22
2022-11-19T13:15:30.546Z,2.25
2022-11-19T13:17:58.940Z,3.17
2022-11-19T13:20:33.795Z,3.75
2022-11-19T13:23:04.517Z,3.85
2022-11-19T13:25:40.327Z,4.47
2022-11-19T13:28:13.700Z,3.70
2022-11-19T13:30:40.224Z,3.00
2022-11-19T13:33:30.412Z,2.88
2022-11-19T13:36:15.824Z,2.60
2022-11-19T13:39:37.270Z,2.10
2022-11-19T13:42:22.560Z,2.40
2022-11-19T13:44:49.125Z,2.97
2022-11-19T13:47:24.822Z,3.25
2022-11-19T13:49:54.141Z,2.88
2022-11-19T13:52:30.709Z,3.75
2022-11-19T13:54:57.930Z,4.03
2022-11-19T13:57:35.788Z,3.65
2022-11-19T14:00:25.717Z,3.17
2022-11-19T14:03:11.140Z,3.17
2022-11-19T14:06:27.131Z,2.38
2022-11-19T14:09:16.699Z,2.10
2022-11-19T14:12:06.493Z,2.40
2022-11-19T14:15:08.272Z,2.05
2022-11-19T14:18:02.604Z,2.28
2022-11-19T14:20:53.702Z,2.30
2022-11-19T14:24:11.114Z,2.92
2022-11-19T14:26:40.451Z,2.60
2022-11-19T14:29:23.165Z,3.00
2022-11-19T14:32:07.913Z,3.20
2022-11-19T14:34:42.752Z,3.35
2022-11-19T14:37:35.026Z,3.10
2022-11-19T14:40:19.860Z,3.42
2022-11-19T14:43:20.230Z,3.55
2022-11-19T14:46:02.059Z,4.00
2022-11-19T14:48:38.755Z,4.70
2022-11-19T14:51:14.075Z,4.32
2022-11-19T14:53:57.284Z,3.60
2022-11-19T14:56:24.027Z,3.95
2022-11-19T14:59:15.927Z,5.28
2022-11-19T15:02:02.887Z,5.07
2022-11-19T15:04:35.046Z,5.80
2022-11-19T15:07:02.027Z,5.27
2022-11-19T15:09:50.959Z,5.47
2022-11-19T15:12:19.618Z,5.75
2022-11-19T15:15:04.747Z,5.20
2022-11-19T15:17:31.426Z,6.05
2022-11-19T15:20:36.947Z,5.93
2022-11-19T15:23:21.890Z,5.80
2022-11-19T15:26:04.824Z,5.30
2022-11-19T15:28:45.414Z,4.80
2022-11-19T15:31:28.918Z,4.95
2022-11-19T15:33:55.434Z,6.50
2022-11-19T15:36:33.673Z,5.13
2022-11-19T15:39:01.862Z,4.95
2022-11-19T15:41:31.166Z,4.45
2022-11-19T15:43:59.776Z,5.70
2022-11-19T15:46:32.412Z,6.70
2022-11-19T15:49:01.854Z,7.13
2022-11-19T15:51:28.444Z,6.68
2022-11-19T15:54:05.267Z,5.72
2022-11-19T15:56:37.094Z,5.03
2022-11-19T15:59:03.983Z,5.20
2022-11-19T16:01:32.315Z,7.63
2022-11-19T16:03:59.096Z,7.78
2022-11-19T16:06:29.087Z,8.18
2022-11-19T16:09:00.577Z,6.32
2022-11-19T16:11:47.865Z,5.43
2022-11-19T16:14:46.464Z,5.20
2022-11-19T16:17:32.342Z,7.72
2022-11-19T16:20:24.289Z,7.43
2022-11-19T16:22:58.664Z,7.45
2022-11-19T16:25:31.372Z,6.85
2022-11-19T16:27:59.920Z,6.10
2022-11-19T16:30:28.112Z,5.70
2022-11-19T16:32:59.117Z,5.40
2022-11-19T16:35:28.083Z,5.93
2022-11-19T16:37:54.915Z,5.70
2022-11-19T16:40:21.595Z,6.05
2022-11-19T16:42:59.270Z,5.43
2022-11-19T16:45:27.775Z,5.03
2022-11-19T16:47:59.064Z,5.00
2022-11-19T16:50:36.284Z,5.18
2022-11-19T16:53:05.096Z,5.28
2022-11-19T16:55:33.961Z,5.10
2022-11-19T16:58:25.210Z,5.78
2022-11-19T17:00:55.274Z,5.38
2022-11-19T17:03:21.798Z,5.35
2022-11-19T17:05:50.781Z,4.95
2022-11-19T17:08:31.777Z,6.00
2022-11-19T17:11:42.435Z,6.07
2022-11-19T17:14:20.595Z,5.93
2022-11-19T17:16:51.837Z,6.43
2022-11-19T17:19:31.521Z,6.47
2022-11-19T17:22:21.653Z,6.70
2022-11-19T17:24:48.248Z,6.05
2022-11-19T17:27:23.494Z,6.82
2022-11-19T17:29:50.075Z,7.03
2022-11-19T17:32:16.625Z,6.30
2022-11-19T17:34:46.339Z,7.18
2022-11-19T17:37:12.896Z,7.82
2022-11-19T17:39:39.468Z,7.80
2022-11-19T17:42:24.507Z,5.97
2022-11-19T17:44:51.657Z,6.32
2022-11-19T17:47:22.249Z,7.35
2022-11-19T17:49:49.526Z,6.45
2022-11-19T17:52:29.271Z,6.53
2022-11-19T17:55:04.367Z,7.45
2022-11-19T17:57:31.234Z,7.70
2022-11-19T17:59:57.859Z,8.48
2022-11-19T18:02:24.506Z,9.13
2022-11-19T18:04:51.080Z,6.43
2022-11-19T18:07:17.708Z,6.38
2022-11-19T18:09:44.930Z,7.15
2022-11-19T18:12:15.193Z,7.20
2022-11-19T18:14:42.104Z,7.80
2022-11-19T18:17:12.607Z,7.93
2022-11-19T18:19:39.206Z,7.55
2022-11-19T18:22:05.772Z,7.40
2022-11-19T18:24:32.419Z,8.38
2022-11-19T18:26:58.959Z,9.35
2022-11-19T18:29:25.651Z,8.68
2022-11-19T18:31:53.338Z,7.38
2022-11-19T18:34:23.365Z,7.78
2022-11-19T18:36:50.702Z,7.40
2022-11-19T18:39:17.351Z,7.25
2022-11-19T18:41:44.247Z,8.02
2022-11-19T18:44:31.493Z,8.13
2022-11-19T18:46:58.336Z,8.80
2022-11-19T18:49:24.982Z,9.75
2022-11-19T18:51:52.302Z,9.18
2022-11-19T18:54:19.052Z,10.40
2022-11-19T18:56:45.714Z,10.10
2022-11-19T18:59:13.071Z,9.20
2022-11-19T19:01:39.857Z,9.00
2022-11-19T19:04:07.132Z,10.20
2022-11-19T19:06:33.736Z,10.88
2022-11-19T19:09:00.443Z,8.98
2022-11-19T19:11:45.896Z,8.05
2022-11-19T19:14:12.456Z,8.80
2022-11-19T19:16:39.016Z,9.23
2022-11-19T19:19:05.746Z,8.95
2022-11-19T19:21:32.453Z,8.80
2022-11-19T19:23:59.037Z,8.52
2022-11-19T19:26:25.789Z,8.57
2022-11-19T19:28:54.010Z,8.27
2022-11-19T19:31:21.845Z,8.77
2022-11-19T19:33:48.777Z,9.13
2022-11-19T19:36:16.171Z,9.07
2022-11-19T19:38:52.103Z,8.10
2022-11-19T19:41:28.440Z,8.05
2022-11-19T19:43:57.539Z,8.23
2022-11-19T19:46:24.446Z,8.43
2022-11-19T19:48:52.561Z,7.63
2022-11-19T19:51:20.700Z,7.47
2022-11-19T19:53:47.983Z,7.03
2022-11-19T19:56:22.987Z,7.70
2022-11-19T19:58:50.835Z,6.88
2022-11-19T20:01:20.277Z,7.80
2022-11-19T20:03:51.632Z,8.80
2022-11-19T20:06:22.439Z,8.35
2022-11-19T20:08:48.986Z,8.20
2022-11-19T20:11:18.101Z,7.50
2022-11-19T20:13:44.864Z,7.93
2022-11-19T20:16:18.180Z,8.32
2022-11-19T20:18:46.415Z,8.20
2022-11-19T20:21:15.546Z,8.65
2022-11-19T20:23:42.641Z,9.98
2022-11-19T20:26:15.031Z,9.55
2022-11-19T20:28:41.857Z,8.50
2022-11-19T20:31:16.817Z,8.32
2022-11-19T20:33:44.112Z,7.80
2022-11-19T20:36:12.595Z,6.95
2022-11-19T20:38:41.094Z,7.28
2022-11-19T20:41:28.944Z,7.03
2022-11-19T20:44:15.155Z,8.55
2022-11-19T20:46:41.875Z,8.18
2022-11-19T20:49:10.545Z,7.65
2022-11-19T20:51:39.768Z,8.45
2022-11-19T20:54:08.786Z,7.63
2022-11-19T20:56:39.139Z,6.10
2022-11-19T20:59:06.159Z,7.10
2022-11-19T21:01:33.360Z,6.80
2022-11-19T21:04:00.037Z,6.90
2022-11-19T21:06:26.685Z,7.28
2022-11-19T21:08:53.253Z,7.35
2022-11-19T21:11:19.982Z,6.85
2022-11-19T21:13:46.687Z,7.53
2022-11-19T21:16:15.351Z,7.90
2022-11-19T21:18:42.762Z,7.55
2022-11-19T21:21:11.218Z,7.03
2022-11-19T21:23:38.453Z,7.70
2022-11-19T21:26:13.845Z,7.28
2022-11-19T21:28:41.119Z,7.43
2022-11-19T21:31:08.033Z,7.50
2022-11-19T21:33:34.639Z,6.82
2022-11-19T21:36:02.961Z,8.00
2022-11-19T21:38:30.270Z,10.02
2022-11-19T21:40:56.880Z,10.05
2022-11-19T21:43:24.575Z,10.45
2022-11-19T21:45:53.828Z,9.93
2022-11-19T21:48:21.435Z,10.25
2022-11-19T21:50:48.416Z,9.00
2022-11-19T21:53:16.127Z,7.03
2022-11-19T21:55:43.987Z,7.70
2022-11-19T21:58:12.403Z,7.05
2022-11-19T22:00:39.687Z,7.00
2022-11-19T22:03:06.795Z,7.70
2022-11-19T22:05:33.838Z,7.90
2022-11-19T22:08:00.559Z,7.82
2022-11-19T22:10:27.568Z,7.80
2022-11-19T22:12:54.167Z,8.38
2022-11-19T22:15:20.728Z,8.75
2022-11-19T22:17:47.318Z,9.48
2022-11-19T22:20:13.909Z,9.73
2022-11-19T22:22:45.084Z,9.95
2022-11-19T22:25:15.483Z,9.80
2022-11-19T22:27:42.166Z,10.13
2022-11-19T22:30:10.247Z,10.30
2022-11-19T22:32:36.991Z,10.52
2022-11-19T22:35:04.176Z,10.43
2022-11-19T22:37:30.737Z,9.98
2022-11-19T22:39:57.433Z,10.80
2022-11-19T22:42:24.008Z,10.15
2022-11-19T22:44:51.555Z,9.60
2022-11-19T22:47:18.105Z,10.35
2022-11-19T22:49:44.674Z,10.82
2022-11-19T22:52:11.280Z,10.43
2022-11-19T22:54:41.614Z,11.32
2022-11-19T22:57:08.883Z,11.35
2022-11-19T22:59:35.740Z,10.43
2022-11-19T23:02:02.363Z,11.43
2022-11-19T23:04:29.344Z,11.35
2022-11-19T23:06:56.148Z,12.40
2022-11-19T23:09:23.237Z,14.57
2022-11-19T23:12:08.315Z,13.70
2022-11-19T23:14:35.046Z,12.65
2022-11-19T23:17:01.600Z,13.93
2022-11-19T23:19:28.166Z,13.48
2022-11-19T23:21:54.695Z,12.35
2022-11-19T23:24:21.344Z,13.27
2022-11-19T23:26:47.937Z,12.40
2022-11-19T23:29:14.487Z,13.13
2022-11-19T23:31:41.097Z,11.90
2022-11-19T23:34:07.965Z,11.82
2022-11-19T23:36:37.059Z,11.60
2022-11-19T23:39:05.259Z,11.98
2022-11-19T23:41:33.239Z,12.60
2022-11-19T23:43:59.914Z,12.18
2022-11-19T23:46:31.394Z,13.45
2022-11-19T23:48:58.575Z,12.68
2022-11-19T23:51:27.097Z,12.95
2022-11-19T23:53:53.838Z,13.90
2022-11-19T23:56:21.254Z,14.25
2022-11-19T23:58:48.202Z,14.60
